Aérodrome :
LOGIN :

S'inscrire | Disclaimer

   EN    FR    IT 

 










Légende :    VFR   VFR Marginal   IFR   IFR Intensif   IFR Très Intensif
Visi : 
Plafond : 
>= 8 km
>= 3000ft
5 à 8 km
1000 à 3000 ft
1500m à 5 km
500 à 1000 ft
800 à 1500m
200 à 500 ft
< 800m
< 200 ft
Symboles :   Orages  Brouillard  Fortes neiges  Fortes précipitations  Vent > 20 kt
SIGMETs :   Divers  Orages  Givrage  Turbulence  Onde Orograph.  Cendres Volcan.






- Altitude de l'aérodrome : 215 ft
- Code IATA : ABZ


EGPD - Aberdeen / Dyce

DERNIER METAR :
  • 111020Z AUTO 11006KT 9999 BKN009 17/15 Q1019 TEMPO SCT009

METARs EXPIRÉS :
  • 110950Z AUTO 10005KT 060V140 9999 BKN007 17/15 Q1019 BECMG SCT007
  • 110920Z AUTO 09006KT 040V120 9999 OVC005 16/15 Q1019 BECMG SCT005
  • 110850Z AUTO 08005KT 8000 OVC002 16/15 Q1020 BECMG FEW002
  • 110820Z AUTO VRB03KT 2100 BR OVC002 15/15 Q1020 BECMG 9999 NSW SCT005
  • 110750Z AUTO VRB02KT 0600 R34/0900 FG VV/// 15/14 Q1020 BECMG 4000 BR BKN005

TAF AMD TAF EGPD
Valide du 11 à 09h jusqu'au 12 à 06h UTC


110902Z 1109/1206 11006KT 7000 BKN004
BECMG 1109/1112 9999 FEW012
TEMPO 1109/1118 6000 SHRA BKN012
PROB30
TEMPO 1112/1118 4000 +SHRA BKN006
BECMG 1118/1121 6000 BKN006
TEMPO 1118/1206 3000 BR BKN003
PROB40 1119/1206 0300 FG VV///



MET'MAP, la Météo Aéronautique d'un coup d'oeil ! - Copyright ORBIFLY Décembre 2007 - Disclaimer

ORBIFLY MET'MAP TEAM :

Programmation & Développement : Alexandra Zaïnal
Sur une idée originale de : Baudouin d'Aumeries
Assistance à la programmation : Marc-Olivier Méhu
Soutien technique & logistique : Manuel Goepfert

Contact : metmap@orbifly.com




SOURCES & CREDITS :

   NOAA